»·PEaware :: AAL4214 KSAN-KDEN

AAL4214 :: KSAN-KDEN

FLIGHT INFORMATION

Flight Status: Arrived
Operator:
American Airlines
More flights by this operator :: More flights under this callsign
Pilot: Anonymous 12254 (12254)
Aircraft: BOEING 737-800
(B738)
More flights by this aircraft type
Origin: KSAN San Diego Intl-Lindbergh
United States
Destination: KDEN Denver Intl
United States
More flights between these airports :: More routes between these airports
Route: ZZOOO2 MTBAL EED J236 TBC OURAY PEEKK3
File this flight plan on PilotEdge
Remarks:
Altitude:
(Current/Filed)
33,000ft
Speed:
(Current/Filed)
450kts
Departed: 10-Mar-20 07:28 AM
Arrived: 10-Mar-20 09:32 AM
Distance/Time
Traveled:
740nm/2:04
Distance/Time
To Go:
Arrived

Flight Plot

Page will automatically refresh every two minutes.

Flight plan parsing failed; only flown route is shown


Map Options




Map Legend


Flown Route
Filed Route
Departure Airport
Arrival Airport
Navaid (VOR, NDB)
Fix

Horizontal Profiles

Position Reports

Time Latitude Longitude Heading Altitude Ground
Speed
10-Mar-20 06:57 32.733070 -117.200027 16 18ft 0kts
10-Mar-20 06:58 32.733070 -117.200027 16 18ft 0kts
10-Mar-20 06:59 32.733070 -117.200027 16 18ft 0kts
10-Mar-20 07:00 32.733070 -117.200027 16 18ft 0kts
10-Mar-20 07:01 32.733070 -117.200027 16 18ft 0kts
10-Mar-20 07:02 32.733070 -117.200027 16 18ft 0kts
10-Mar-20 07:03 32.733070 -117.200027 16 18ft 0kts
10-Mar-20 07:04 32.733070 -117.200027 16 18ft 0kts
10-Mar-20 07:05 32.733070 -117.200027 16 18ft 0kts
10-Mar-20 07:06 32.733070 -117.200027 16 18ft 0kts
10-Mar-20 07:07 32.733070 -117.200027 16 18ft 0kts
10-Mar-20 07:08 32.733070 -117.200027 16 18ft 0kts
10-Mar-20 07:09 32.733070 -117.200027 16 18ft 0kts
10-Mar-20 07:10 32.733070 -117.200027 16 18ft 0kts
10-Mar-20 07:11 32.733070 -117.200027 16 18ft 0kts
10-Mar-20 07:12 32.733070 -117.200027 16 18ft 0kts
10-Mar-20 07:13 32.733070 -117.200027 16 18ft 0kts
10-Mar-20 07:14 32.733070 -117.200027 16 18ft 0kts
10-Mar-20 07:15 32.733070 -117.200027 16 18ft 0kts
10-Mar-20 07:16 32.733070 -117.200027 16 18ft 0kts
10-Mar-20 07:17 32.733070 -117.200027 16 18ft 0kts
10-Mar-20 07:18 32.733070 -117.200027 16 18ft 0kts
10-Mar-20 07:19 32.733070 -117.200027 16 18ft 0kts
10-Mar-20 07:20 32.733070 -117.200027 16 18ft 0kts
10-Mar-20 07:21 32.733424 -117.199899 17 18ft 3kts
10-Mar-20 07:22 32.734283 -117.199593 16 18ft 3kts
10-Mar-20 07:23 32.734341 -117.197139 106 18ft 14kts
10-Mar-20 07:24 32.732909 -117.191205 106 21ft 24kts
10-Mar-20 07:25 32.730901 -117.182935 105 18ft 25kts
10-Mar-20 07:26 32.730207 -117.176293 317 25ft 16kts
10-Mar-20 07:27 32.740040 -117.213969 283 905ft 193kts
10-Mar-20 07:28 32.754602 -117.285785 257 4128ft 247kts
10-Mar-20 07:29 32.702610 -117.301732 154 7789ft 230kts
10-Mar-20 07:30 32.654979 -117.264746 153 10545ft 180kts
10-Mar-20 07:31 32.632978 -117.208763 80 12840ft 253kts
10-Mar-20 07:32 32.626294 -117.127742 129 15501ft 232kts
10-Mar-20 07:33 32.612716 -117.045779 102 17606ft 279kts
10-Mar-20 07:34 32.605728 -116.953492 109 20404ft 256kts
10-Mar-20 07:35 32.610989 -116.870199 85 22241ft 262kts
10-Mar-20 07:36 32.630244 -116.783263 60 23292ft 288kts
10-Mar-20 07:37 32.689932 -116.716490 12 24005ft 318kts
10-Mar-20 07:38 32.767764 -116.681169 15 25100ft 344kts
10-Mar-20 07:39 32.856474 -116.647827 8 26821ft 343kts
10-Mar-20 07:40 32.947313 -116.599691 12 28338ft 355kts
10-Mar-20 07:41 33.027387 -116.588347 14 29472ft 339kts
10-Mar-20 07:42 33.113232 -116.539730 16 30778ft 337kts
10-Mar-20 07:43 33.196022 -116.491420 3 31467ft 322kts
10-Mar-20 07:44 33.280961 -116.445629 15 31358ft 356kts
10-Mar-20 07:45 33.371842 -116.394362 14 32259ft 362kts
10-Mar-20 07:46 33.450748 -116.317278 69 33442ft 364kts
10-Mar-20 07:47 33.505227 -116.201123 59 32998ft 423kts
10-Mar-20 07:48 33.572631 -116.082096 53 33772ft 439kts
10-Mar-20 07:49 33.652995 -115.962140 45 33887ft 478kts
10-Mar-20 07:50 33.747999 -115.838063 45 34147ft 517kts
10-Mar-20 07:51 33.850274 -115.702922 45 33408ft 549kts
10-Mar-20 07:52 33.952513 -115.570487 44 33168ft 535kts
10-Mar-20 07:53 34.053675 -115.442753 44 33110ft 520kts
10-Mar-20 07:54 34.148308 -115.316864 46 33176ft 503kts
10-Mar-20 07:55 34.234027 -115.196669 48 32949ft 491kts
10-Mar-20 07:56 34.315350 -115.081154 46 33027ft 471kts
10-Mar-20 07:57 34.401054 -114.963968 45 32524ft 470kts
10-Mar-20 07:58 34.485011 -114.847524 44 32827ft 443kts
10-Mar-20 07:59 34.564924 -114.734895 43 32724ft 431kts
10-Mar-20 08:00 34.644992 -114.626780 43 32571ft 421kts
10-Mar-20 08:01 34.723485 -114.525650 40 32694ft 412kts
10-Mar-20 08:02 34.796994 -114.420030 61 32823ft 415kts
10-Mar-20 08:03 34.849645 -114.293316 64 32813ft 418kts
10-Mar-20 08:04 34.901177 -114.168570 62 33046ft 410kts
10-Mar-20 08:05 34.953977 -114.044429 62 32699ft 424kts
10-Mar-20 08:06 35.006882 -113.917901 63 32933ft 418kts
10-Mar-20 08:07 35.058298 -113.792182 61 33376ft 406kts
10-Mar-20 08:08 35.111083 -113.666809 61 33099ft 419kts
10-Mar-20 08:09 35.165583 -113.541850 61 33276ft 415kts
10-Mar-20 08:10 35.219491 -113.415820 60 33229ft 419kts
10-Mar-20 08:11 35.274491 -113.287037 61 33031ft 428kts
10-Mar-20 08:12 35.332701 -113.158154 60 32926ft 433kts
10-Mar-20 08:13 35.389921 -113.030783 61 33173ft 426kts
10-Mar-20 08:14 35.445988 -112.902711 61 33235ft 426kts
10-Mar-20 08:15 35.499354 -112.773024 62 33302ft 426kts
10-Mar-20 08:16 35.553268 -112.643776 61 33290ft 428kts
10-Mar-20 08:17 35.606089 -112.510503 61 33355ft 430kts
10-Mar-20 08:18 35.659840 -112.377446 61 33294ft 436kts
10-Mar-20 08:19 35.713765 -112.244242 62 33438ft 433kts
10-Mar-20 08:20 35.768397 -112.111357 60 33397ft 435kts
10-Mar-20 08:21 35.822250 -111.978390 61 33533ft 433kts
10-Mar-20 08:22 35.876585 -111.842768 61 33300ft 444kts
10-Mar-20 08:23 35.931260 -111.707727 62 33447ft 443kts
10-Mar-20 08:24 35.987382 -111.570088 60 33378ft 449kts
10-Mar-20 08:25 36.045611 -111.430680 59 33171ft 461kts
10-Mar-20 08:26 36.105739 -111.290607 57 33458ft 456kts
10-Mar-20 08:27 36.172817 -111.155809 54 33325ft 460kts
10-Mar-20 08:28 36.240657 -111.021099 54 33519ft 456kts
10-Mar-20 08:29 36.307495 -110.883561 55 33144ft 471kts
10-Mar-20 08:30 36.372567 -110.743152 56 33234ft 472kts
10-Mar-20 08:31 36.437313 -110.601074 55 33450ft 470kts
10-Mar-20 08:32 36.504212 -110.459244 55 33138ft 483kts
10-Mar-20 08:33 36.570876 -110.313955 56 33296ft 483kts
10-Mar-20 08:34 36.635632 -110.168885 57 33695ft 474kts
10-Mar-20 08:35 36.703505 -110.025861 54 33250ft 487kts
10-Mar-20 08:36 36.772511 -109.880083 56 33211ft 492kts
10-Mar-20 08:37 36.839208 -109.733956 56 33616ft 484kts
10-Mar-20 08:38 36.906656 -109.586663 56 33649ft 487kts
10-Mar-20 08:39 36.974041 -109.438554 56 33579ft 494kts
10-Mar-20 08:40 37.042068 -109.288730 57 33686ft 494kts
10-Mar-20 08:41 37.056910 -109.256269 56 33762ft 492kts
10-Mar-20 08:42 37.126234 -109.108361 57 33858ft 489kts
10-Mar-20 08:43 37.193566 -108.956915 56 33510ft 496kts
10-Mar-20 08:44 37.262129 -108.808912 56 33422ft 488kts
10-Mar-20 08:46 37.328638 -108.660187 56 33290ft 483kts
10-Mar-20 08:47 37.394478 -108.512871 56 33322ft 474kts
10-Mar-20 08:48 37.458353 -108.370054 56 33240ft 465kts
10-Mar-20 08:49 37.519722 -108.231439 57 33084ft 457kts
10-Mar-20 08:50 37.580691 -108.093951 56 33157ft 441kts
10-Mar-20 08:51 37.640280 -107.960373 53 33037ft 430kts
10-Mar-20 08:52 37.699914 -107.832021 54 33010ft 418kts
10-Mar-20 08:53 37.758486 -107.706127 55 33162ft 417kts
10-Mar-20 08:54 37.815378 -107.577906 55 33239ft 418kts
10-Mar-20 08:55 37.872634 -107.447919 58 33162ft 428kts
10-Mar-20 08:56 37.928195 -107.311722 59 32967ft 441kts
10-Mar-20 08:57 37.981972 -107.182651 60 32943ft 447kts
10-Mar-20 08:58 38.040302 -107.043847 57 33078ft 447kts
10-Mar-20 08:59 38.100538 -106.902377 59 32846ft 461kts
10-Mar-20 09:00 38.160151 -106.757091 56 32680ft 466kts
10-Mar-20 09:01 38.224488 -106.614278 51 32286ft 463kts
10-Mar-20 09:02 38.309319 -106.495335 37 31231ft 451kts
10-Mar-20 09:03 38.397955 -106.387045 33 30501ft 430kts
10-Mar-20 09:04 38.488974 -106.285566 38 28910ft 438kts
10-Mar-20 09:04 38.559375 -106.190661 41 27711ft 439kts
10-Mar-20 09:06 38.655888 -106.062264 39 26984ft 419kts
10-Mar-20 09:07 38.735708 -105.958558 38 26324ft 412kts
10-Mar-20 09:07 38.806502 -105.873856 37 24300ft 428kts
10-Mar-20 09:09 38.909164 -105.749802 41 21139ft 427kts
10-Mar-20 09:09 38.977973 -105.661822 40 19615ft 408kts
10-Mar-20 09:10 39.058491 -105.563166 39 17798ft 389kts
10-Mar-20 09:11 39.128145 -105.468195 44 17256ft 350kts
10-Mar-20 09:12 39.193214 -105.380457 40 16340ft 336kts
10-Mar-20 09:13 39.260233 -105.300053 41 15987ft 334kts
10-Mar-20 09:14 39.335644 -105.222661 32 15172ft 345kts
10-Mar-20 09:15 39.411681 -105.150961 34 14874ft 331kts
10-Mar-20 09:16 39.484705 -105.078645 34 14512ft 329kts
10-Mar-20 09:17 39.556491 -105.007187 34 13260ft 320kts
10-Mar-20 09:18 39.625971 -104.939043 32 12899ft 310kts
10-Mar-20 09:19 39.696706 -104.876057 30 13058ft 300kts
10-Mar-20 09:20 39.774178 -104.827655 0 12138ft 314kts
10-Mar-20 09:21 39.856934 -104.830639 354 10925ft 295kts
10-Mar-20 09:22 39.939052 -104.831456 358 9372ft 284kts
10-Mar-20 09:23 40.014564 -104.829703 359 8545ft 258kts
10-Mar-20 09:24 40.084423 -104.828740 358 7908ft 243kts
10-Mar-20 09:25 40.133962 -104.782544 76 7321ft 243kts
10-Mar-20 09:26 40.105478 -104.714618 147 7049ft 219kts
10-Mar-20 09:27 40.052611 -104.688691 167 7000ft 192kts
10-Mar-20 09:28 40.002609 -104.684878 185 6699ft 177kts
10-Mar-20 09:29 39.952022 -104.686149 180 6624ft 183kts
10-Mar-20 09:30 39.902491 -104.686755 180 5590ft 162kts
10-Mar-20 09:31 39.877247 -104.686350 157 5442ft 5kts
10-Mar-20 09:32 39.874519 -104.683818 169 5442ft 20kts
10-Mar-20 09:33 39.865961 -104.683886 180 5442ft 34kts
10-Mar-20 09:34 39.864168 -104.678210 90 5442ft 22kts
10-Mar-20 09:35 39.863700 -104.673068 180 5442ft 8kts

Navigation Log

Ident Type
Flight plan parsing failed, navigation log unavailable